createdAt,value
2022-11-07T00:00:01.004Z,1017.31
2022-11-07T00:10:01.181Z,1017.31
2022-11-07T00:20:01.122Z,1017.27
2022-11-07T00:30:01.006Z,1017.18
2022-11-07T00:40:01.075Z,1017.20
2022-11-07T00:50:01.372Z,1017.18
2022-11-07T01:00:00.960Z,1017.28
2022-11-07T01:10:01.300Z,1017.10
2022-11-07T01:20:01.032Z,1017.30
2022-11-07T01:30:01.320Z,1017.19
2022-11-07T01:40:01.658Z,1017.03
2022-11-07T01:50:00.149Z,1017.05
2022-11-07T02:00:01.026Z,1017.15
2022-11-07T02:10:01.219Z,1017.09
2022-11-07T02:20:01.472Z,1017.02
2022-11-07T02:30:01.063Z,1016.94
2022-11-07T02:40:00.171Z,1016.87
2022-11-07T02:50:01.053Z,1016.85
2022-11-07T03:00:00.183Z,1016.85
2022-11-07T03:10:01.018Z,1016.89
2022-11-07T03:20:01.056Z,1016.93
2022-11-07T03:30:00.169Z,1017.05
2022-11-07T03:40:01.228Z,1017.20
2022-11-07T03:50:01.183Z,1017.25
2022-11-07T04:10:01.231Z,1017.32
2022-11-07T04:20:01.719Z,1017.26
2022-11-07T04:30:02.176Z,1017.35
2022-11-07T04:40:01.033Z,1017.26
2022-11-07T04:50:00.132Z,1017.44
2022-11-07T05:00:01.289Z,1017.51
2022-11-07T05:10:00.879Z,1017.59
2022-11-07T05:20:01.062Z,1017.61
2022-11-07T05:30:03.306Z,1017.73
2022-11-07T05:40:01.367Z,1017.80
2022-11-07T05:50:01.284Z,1017.80
2022-11-07T06:00:01.013Z,1017.93
2022-11-07T06:10:01.048Z,1017.99
2022-11-07T06:20:01.483Z,1018.18
2022-11-07T06:30:02.345Z,1018.12
2022-11-07T06:40:01.496Z,1018.18
2022-11-07T06:50:01.484Z,1018.26
2022-11-07T07:00:01.273Z,1018.29
2022-11-07T07:10:01.217Z,1018.42
2022-11-07T07:20:00.248Z,1018.50
2022-11-07T07:30:01.234Z,1018.56
2022-11-07T07:40:01.173Z,1018.48
2022-11-07T07:50:00.996Z,1018.47
2022-11-07T08:00:01.224Z,1018.52
2022-11-07T08:10:20.576Z,1018.51
2022-11-07T08:20:01.057Z,1018.62
2022-11-07T08:30:00.130Z,1018.60
2022-11-07T08:40:00.152Z,1018.60
2022-11-07T08:50:00.140Z,1018.63
2022-11-07T09:00:00.149Z,1018.64
2022-11-07T09:10:00.966Z,1018.74
2022-11-07T09:20:01.307Z,1018.64
2022-11-07T09:30:00.120Z,1018.72
2022-11-07T09:40:00.232Z,1018.84
2022-11-07T09:50:00.948Z,1018.82
2022-11-07T10:00:00.999Z,1018.89
2022-11-07T10:10:00.128Z,1018.77
2022-11-07T10:30:00.137Z,1018.71
2022-11-07T10:40:01.512Z,1018.70
2022-11-07T10:50:01.648Z,1018.63
2022-11-07T11:00:01.017Z,1018.67
2022-11-07T11:10:01.275Z,1018.59
2022-11-07T11:20:01.423Z,1018.57
2022-11-07T11:30:00.128Z,1018.56
2022-11-07T11:40:01.413Z,1018.48
2022-11-07T11:50:01.023Z,1018.45
2022-11-07T12:10:00.108Z,1018.47
2022-11-07T12:20:01.001Z,1018.35
2022-11-07T12:30:02.232Z,1018.42
2022-11-07T12:40:01.219Z,1018.34
2022-11-07T12:50:01.445Z,1018.47
2022-11-07T13:00:01.560Z,1018.47
2022-11-07T13:10:01.195Z,1018.47
2022-11-07T13:20:01.988Z,1018.47
2022-11-07T13:30:01.295Z,1018.47
2022-11-07T13:40:01.062Z,1018.47
2022-11-07T13:50:00.183Z,1018.47
2022-11-07T14:00:01.139Z,1018.47
2022-11-07T14:10:01.024Z,1018.47
2022-11-07T14:20:00.176Z,1018.47
2022-11-07T14:30:00.154Z,1018.47
2022-11-07T14:40:01.401Z,1018.47
2022-11-07T14:50:01.486Z,1018.47
2022-11-07T15:00:00.171Z,1018.47
2022-11-07T15:10:01.035Z,1018.47
2022-11-07T15:20:02.798Z,1018.47
2022-11-07T15:30:00.242Z,1018.47
2022-11-07T15:40:01.406Z,1018.47
2022-11-07T15:50:01.538Z,1018.47
2022-11-07T16:00:00.260Z,1018.47
2022-11-07T16:10:00.165Z,1018.47
2022-11-07T16:20:01.771Z,1018.47
2022-11-07T16:30:00.144Z,1018.47
2022-11-07T16:40:02.110Z,1018.47
2022-11-07T16:50:01.317Z,1018.47
2022-11-07T17:00:01.994Z,1018.47
2022-11-07T17:10:00.988Z,1018.47
2022-11-07T17:20:01.107Z,1018.47
2022-11-07T17:30:04.555Z,1018.47
2022-11-07T17:40:01.274Z,1018.47
2022-11-07T17:50:01.272Z,1018.47
2022-11-07T18:00:01.129Z,1018.47
2022-11-07T18:10:00.143Z,1018.47
2022-11-07T18:20:01.544Z,1018.47
2022-11-07T18:30:01.964Z,1018.47
2022-11-07T18:40:01.034Z,1018.47
2022-11-07T18:50:01.001Z,1018.47
2022-11-07T19:00:01.355Z,1018.47
2022-11-07T19:10:01.009Z,1018.47
2022-11-07T19:20:01.083Z,1018.47
2022-11-07T19:30:01.771Z,1018.47
2022-11-07T19:40:01.209Z,1018.47
2022-11-07T19:50:02.034Z,1018.47
2022-11-07T20:00:01.346Z,1018.47
2022-11-07T20:10:01.375Z,1018.47
2022-11-07T20:20:04.523Z,1018.47
2022-11-07T20:30:01.026Z,1018.47
2022-11-07T20:40:01.996Z,1018.47
2022-11-07T20:50:00.139Z,1018.47
2022-11-07T21:00:00.168Z,1018.47
2022-11-07T21:10:01.216Z,1018.47
2022-11-07T21:20:01.351Z,1018.47
2022-11-07T21:30:01.032Z,1018.47
2022-11-07T21:40:04.785Z,1018.47
2022-11-07T21:50:06.406Z,1018.47
2022-11-07T22:00:01.310Z,1018.47
2022-11-07T22:10:02.264Z,1018.47
2022-11-07T22:20:00.145Z,1018.47
2022-11-07T22:30:01.321Z,1018.47
2022-11-07T22:40:00.187Z,1018.47
2022-11-07T22:50:00.166Z,1018.47
2022-11-07T23:00:12.661Z,1018.47
2022-11-07T23:10:01.357Z,1018.47
2022-11-07T23:20:01.814Z,1018.47
2022-11-07T23:30:00.089Z,1018.47
2022-11-07T23:40:00.149Z,1018.47
2022-11-07T23:50:01.061Z,1018.47
